sensor_id;sensor_type;location;lat;lon;timestamp;P1;durP1;ratioP1;P2;durP2;ratioP2
10166;SDS011;62970;53.130;8.244;2023-11-21T06:25:01;11.77;;;10.37;;
10166;SDS011;62970;53.130;8.244;2023-11-21T18:29:47;3.33;;;3.03;;
10166;SDS011;62970;53.130;8.244;2023-11-21T18:32:26;3.30;;;3.00;;
10166;SDS011;62970;53.130;8.244;2023-11-21T18:35:04;4.97;;;2.80;;
10166;SDS011;62970;53.130;8.244;2023-11-21T18:44:45;3.80;;;3.37;;
10166;SDS011;62970;53.130;8.244;2023-11-21T18:47:54;3.50;;;3.20;;
10166;SDS011;62970;53.130;8.244;2023-11-21T18:50:25;4.90;;;4.40;;
10166;SDS011;62970;53.130;8.244;2023-11-21T18:55:59;7.23;;;4.57;;
10166;SDS011;62970;53.130;8.244;2023-11-21T18:58:28;5.87;;;5.37;;
10166;SDS011;62970;53.130;8.244;2023-11-21T19:00:58;4.47;;;4.03;;
10166;SDS011;62970;53.130;8.244;2023-11-21T19:03:30;4.90;;;4.50;;
10166;SDS011;62970;53.130;8.244;2023-11-21T19:06:00;3.60;;;3.30;;
10166;SDS011;62970;53.130;8.244;2023-11-21T19:08:29;4.60;;;4.20;;
10166;SDS011;62970;53.130;8.244;2023-11-21T19:10:58;3.70;;;3.40;;
10166;SDS011;62970;53.130;8.244;2023-11-21T19:13:28;3.73;;;3.37;;
10166;SDS011;62970;53.130;8.244;2023-11-21T19:15:57;3.50;;;3.20;;
10166;SDS011;62970;53.130;8.244;2023-11-21T19:18:26;4.10;;;3.60;;
10166;SDS011;62970;53.130;8.244;2023-11-21T19:20:58;3.40;;;3.10;;
10166;SDS011;62970;53.130;8.244;2023-11-21T19:23:32;4.20;;;3.80;;
10166;SDS011;62970;53.130;8.244;2023-11-21T19:26:01;3.27;;;2.97;;
10166;SDS011;62970;53.130;8.244;2023-11-21T19:28:30;3.10;;;2.80;;
10166;SDS011;62970;53.130;8.244;2023-11-21T19:31:00;4.10;;;3.70;;
10166;SDS011;62970;53.130;8.244;2023-11-21T19:33:32;3.33;;;3.03;;
10166;SDS011;62970;53.130;8.244;2023-11-21T19:36:01;4.40;;;4.00;;
10166;SDS011;62970;53.130;8.244;2023-11-21T19:38:33;3.97;;;3.57;;
10166;SDS011;62970;53.130;8.244;2023-11-21T19:41:03;4.50;;;4.10;;
10166;SDS011;62970;53.130;8.244;2023-11-21T19:43:43;5.67;;;3.70;;
10166;SDS011;62970;53.130;8.244;2023-11-21T19:46:15;4.23;;;3.83;;
10166;SDS011;62970;53.130;8.244;2023-11-21T19:48:48;4.20;;;3.80;;
10166;SDS011;62970;53.130;8.244;2023-11-21T19:51:18;8.20;;;6.07;;
10166;SDS011;62970;53.130;8.244;2023-11-21T19:53:49;31.07;;;17.20;;
10166;SDS011;62970;53.130;8.244;2023-11-21T19:56:20;22.27;;;12.97;;
10166;SDS011;62970;53.130;8.244;2023-11-21T19:58:53;28.03;;;18.40;;
10166;SDS011;62970;53.130;8.244;2023-11-21T20:01:22;20.67;;;16.33;;
10166;SDS011;62970;53.130;8.244;2023-11-21T20:03:54;11.80;;;9.70;;
10166;SDS011;62970;53.130;8.244;2023-11-21T20:06:23;9.93;;;8.93;;
10166;SDS011;62970;53.130;8.244;2023-11-21T20:08:52;8.57;;;7.77;;
10166;SDS011;62970;53.130;8.244;2023-11-21T20:11:24;9.20;;;7.83;;
10166;SDS011;62970;53.130;8.244;2023-11-21T20:13:56;8.63;;;7.27;;
10166;SDS011;62970;53.130;8.244;2023-11-21T20:16:29;8.67;;;7.50;;
10166;SDS011;62970;53.130;8.244;2023-11-21T20:19:01;7.93;;;7.13;;
10166;SDS011;62970;53.130;8.244;2023-11-21T20:21:32;7.70;;;6.90;;
10166;SDS011;62970;53.130;8.244;2023-11-21T20:24:02;6.20;;;5.60;;
10166;SDS011;62970;53.130;8.244;2023-11-21T20:26:32;4.60;;;4.20;;
10166;SDS011;62970;53.130;8.244;2023-11-21T20:29:02;4.83;;;4.33;;
10166;SDS011;62970;53.130;8.244;2023-11-21T20:31:31;5.30;;;4.80;;
10166;SDS011;62970;53.130;8.244;2023-11-21T20:34:03;5.63;;;5.13;;
10166;SDS011;62970;53.130;8.244;2023-11-21T20:36:36;6.93;;;6.33;;
10166;SDS011;62970;53.130;8.244;2023-11-21T20:39:06;6.17;;;5.57;;
10166;SDS011;62970;53.130;8.244;2023-11-21T20:41:36;5.70;;;5.10;;
10166;SDS011;62970;53.130;8.244;2023-11-21T20:44:08;6.13;;;5.60;;
10166;SDS011;62970;53.130;8.244;2023-11-21T20:46:38;6.30;;;5.70;;
10166;SDS011;62970;53.130;8.244;2023-11-21T20:49:13;6.63;;;5.60;;
10166;SDS011;62970;53.130;8.244;2023-11-21T20:51:43;5.70;;;5.13;;
10166;SDS011;62970;53.130;8.244;2023-11-21T20:54:13;9.70;;;8.40;;
10166;SDS011;62970;53.130;8.244;2023-11-21T20:56:42;9.53;;;8.53;;
10166;SDS011;62970;53.130;8.244;2023-11-21T20:59:12;8.97;;;8.00;;
10166;SDS011;62970;53.130;8.244;2023-11-21T21:01:42;7.83;;;6.87;;
10166;SDS011;62970;53.130;8.244;2023-11-21T21:04:14;8.40;;;6.90;;
10166;SDS011;62970;53.130;8.244;2023-11-21T21:06:44;8.90;;;8.10;;
10166;SDS011;62970;53.130;8.244;2023-11-21T21:09:14;7.77;;;7.07;;
10166;SDS011;62970;53.130;8.244;2023-11-21T21:11:43;7.33;;;6.63;;
10166;SDS011;62970;53.130;8.244;2023-11-21T21:14:13;6.10;;;5.50;;
10166;SDS011;62970;53.130;8.244;2023-11-21T21:16:44;6.70;;;6.10;;
10166;SDS011;62970;53.130;8.244;2023-11-21T21:19:16;6.20;;;5.10;;
10166;SDS011;62970;53.130;8.244;2023-11-21T21:21:45;6.43;;;5.10;;
10166;SDS011;62970;53.130;8.244;2023-11-21T21:24:14;5.13;;;4.63;;
10166;SDS011;62970;53.130;8.244;2023-11-21T21:26:44;6.20;;;5.50;;
10166;SDS011;62970;53.130;8.244;2023-11-21T21:29:13;5.00;;;4.50;;
10166;SDS011;62970;53.130;8.244;2023-11-21T21:31:44;5.23;;;4.73;;
10166;SDS011;62970;53.130;8.244;2023-11-21T21:34:17;6.27;;;5.20;;
10166;SDS011;62970;53.130;8.244;2023-11-21T21:36:46;6.00;;;5.10;;
10166;SDS011;62970;53.130;8.244;2023-11-21T21:39:32;6.43;;;4.97;;
10166;SDS011;62970;53.130;8.244;2023-11-21T21:42:01;6.40;;;4.93;;
10166;SDS011;62970;53.130;8.244;2023-11-21T21:44:32;5.30;;;4.63;;
10166;SDS011;62970;53.130;8.244;2023-11-21T21:47:01;6.53;;;5.60;;
10166;SDS011;62970;53.130;8.244;2023-11-21T21:49:33;6.73;;;6.07;;
10166;SDS011;62970;53.130;8.244;2023-11-21T21:52:03;6.23;;;5.63;;
10166;SDS011;62970;53.130;8.244;2023-11-21T21:54:33;6.30;;;5.57;;
10166;SDS011;62970;53.130;8.244;2023-11-21T21:57:03;8.43;;;7.10;;
10166;SDS011;62970;53.130;8.244;2023-11-21T21:59:33;11.87;;;10.70;;
10166;SDS011;62970;53.130;8.244;2023-11-21T22:02:03;10.43;;;8.67;;
10166;SDS011;62970;53.130;8.244;2023-11-21T22:04:35;8.70;;;7.80;;
10166;SDS011;62970;53.130;8.244;2023-11-21T22:07:05;8.63;;;7.63;;
10166;SDS011;62970;53.130;8.244;2023-11-21T22:09:37;8.10;;;7.27;;
10166;SDS011;62970;53.130;8.244;2023-11-21T22:12:07;9.97;;;7.73;;
10166;SDS011;62970;53.130;8.244;2023-11-21T22:14:36;10.83;;;9.23;;
10166;SDS011;62970;53.130;8.244;2023-11-21T22:17:05;13.00;;;11.63;;
10166;SDS011;62970;53.130;8.244;2023-11-21T22:19:37;11.27;;;10.07;;
10166;SDS011;62970;53.130;8.244;2023-11-21T22:22:06;10.90;;;9.80;;
10166;SDS011;62970;53.130;8.244;2023-11-21T22:24:36;11.23;;;9.57;;
10166;SDS011;62970;53.130;8.244;2023-11-21T22:27:06;11.37;;;9.27;;
10166;SDS011;62970;53.130;8.244;2023-11-21T22:29:36;10.00;;;8.87;;
10166;SDS011;62970;53.130;8.244;2023-11-21T22:32:06;7.60;;;6.90;;
10166;SDS011;62970;53.130;8.244;2023-11-21T22:34:37;8.73;;;7.83;;
10166;SDS011;62970;53.130;8.244;2023-11-21T22:37:07;7.97;;;6.97;;
10166;SDS011;62970;53.130;8.244;2023-11-21T22:39:37;7.90;;;6.50;;
10166;SDS011;62970;53.130;8.244;2023-11-21T22:42:08;7.27;;;6.23;;
10166;SDS011;62970;53.130;8.244;2023-11-21T22:44:40;6.73;;;6.00;;
10166;SDS011;62970;53.130;8.244;2023-11-21T22:47:19;6.87;;;5.77;;
10166;SDS011;62970;53.130;8.244;2023-11-21T22:49:51;7.97;;;6.90;;
10166;SDS011;62970;53.130;8.244;2023-11-21T22:52:25;9.80;;;8.30;;
10166;SDS011;62970;53.130;8.244;2023-11-21T22:54:56;7.43;;;6.63;;
10166;SDS011;62970;53.130;8.244;2023-11-21T22:57:29;7.47;;;6.73;;
10166;SDS011;62970;53.130;8.244;2023-11-21T23:00:04;7.80;;;7.00;;
10166;SDS011;62970;53.130;8.244;2023-11-21T23:02:39;8.53;;;6.90;;
10166;SDS011;62970;53.130;8.244;2023-11-21T23:05:14;7.77;;;6.77;;
10166;SDS011;62970;53.130;8.244;2023-11-21T23:07:43;9.47;;;7.30;;
10166;SDS011;62970;53.130;8.244;2023-11-21T23:10:13;7.10;;;6.23;;
10166;SDS011;62970;53.130;8.244;2023-11-21T23:12:43;9.40;;;7.73;;
10166;SDS011;62970;53.130;8.244;2023-11-21T23:15:12;8.03;;;7.10;;
10166;SDS011;62970;53.130;8.244;2023-11-21T23:17:44;7.70;;;6.93;;
10166;SDS011;62970;53.130;8.244;2023-11-21T23:20:17;7.87;;;6.50;;
10166;SDS011;62970;53.130;8.244;2023-11-21T23:22:47;7.83;;;6.23;;
10166;SDS011;62970;53.130;8.244;2023-11-21T23:25:17;6.70;;;5.73;;
10166;SDS011;62970;53.130;8.244;2023-11-21T23:27:47;6.60;;;5.93;;
10166;SDS011;62970;53.130;8.244;2023-11-21T23:30:16;6.83;;;6.13;;
10166;SDS011;62970;53.130;8.244;2023-11-21T23:32:45;6.70;;;6.00;;
10166;SDS011;62970;53.130;8.244;2023-11-21T23:35:17;7.90;;;5.70;;
10166;SDS011;62970;53.130;8.244;2023-11-21T23:37:46;6.33;;;5.40;;
10166;SDS011;62970;53.130;8.244;2023-11-21T23:40:15;7.10;;;5.80;;
10166;SDS011;62970;53.130;8.244;2023-11-21T23:42:44;7.03;;;5.60;;
10166;SDS011;62970;53.130;8.244;2023-11-21T23:45:16;6.47;;;5.27;;
10166;SDS011;62970;53.130;8.244;2023-11-21T23:47:46;6.37;;;5.63;;
10166;SDS011;62970;53.130;8.244;2023-11-21T23:50:17;6.10;;;5.50;;
10166;SDS011;62970;53.130;8.244;2023-11-21T23:52:51;6.30;;;5.70;;
10166;SDS011;62970;53.130;8.244;2023-11-21T23:55:21;6.07;;;5.47;;
10166;SDS011;62970;53.130;8.244;2023-11-21T23:57:51;7.37;;;6.03;;
